Terminal Aerodrome Forecast
Issued by NWS

Home | Current Version | Previous Version | Graphics & Text | Print | Product List | Glossary On
Versions: 1 2 3 4 5 6 7 8 9 10 11 12 13 14 15 16 17 18 19 20 21 22 23
000
FTUS43 KBIS 031730
TAFJMS
TAF
KJMS 031730Z 0318/0418 35006KT 3SM FU SCT030
      TEMPO 0318/0322 1 1/2SM FU VV030
     FM040100 13004KT 4SM FU SCT050
      TEMPO 0409/0413 2SM FU VV020
     FM041600 18009KT 5SM FU SCT040=

USA.gov is the U.S. government's official web portal to all federal, state and local government web resources and services.